Lurin, Peru
Current Conditions -  °F | °C
As of 4:00 PM on Thursday 27 Nov 2014 (Local Time) from SPIM Reporting Station
Clear Clear  
Wind Chill: 23°   Ceiling: Unl
Heat Index: 23°   Visibility: 6mi
Dew Point: 17°   Wind: 12mph
Humidity: 69%   Direction: 200°SSW
Pressure: 29.88"   Gusts: NA
Location:  12.32°S, 76.25°W
Report Text: SPIM 272100Z 20010KT CAVOK 23/17 Q1012 NOSIG RMK PP000
Loading
Personal Weather Stations






























Interactive Weather Map New forecast layout! Learn more

10-Day Weather Forecast

Advertisements
Track Severe Weather on mobile